Terminal Aerodrome Forecast
Issued by NWS Twin Cities, MN

Home | Current Version | Previous Version | Graphics & Text | Print | Product List | Glossary On
Versions: 1 2 3 4 5 6 7 8 9 10 11 12 13 14 15 16 17 18 19 20 21 22 23 24 25 26
000
FTUS43 KMPX 231455 AAA
TAFMSP
TAF AMD
KMSP 231455Z 2315/2418 28006KT P6SM SKC
     FM240100 VRB03KT P6SM FEW200
     FM240600 11005KT P6SM BKN080
     FM241200 13009KT P6SM -SHRA OVC050=

USA.gov is the U.S. government's official web portal to all federal, state and local government web resources and services.